createdAt,value
2022-10-05T00:01:05.756Z,24.13
2022-10-05T00:03:40.463Z,24.92
2022-10-05T00:06:10.757Z,23.90
2022-10-05T00:08:37.780Z,24.80
2022-10-05T00:11:08.175Z,25.17
2022-10-05T00:13:35.713Z,25.70
2022-10-05T00:16:11.755Z,25.02
2022-10-05T00:18:39.491Z,25.73
2022-10-05T00:21:26.995Z,25.20
2022-10-05T00:23:57.615Z,25.85
2022-10-05T00:26:26.911Z,25.63
2022-10-05T00:28:54.770Z,26.38
2022-10-05T00:31:27.022Z,26.88
2022-10-05T00:33:55.593Z,27.00
2022-10-05T00:36:22.898Z,26.33
2022-10-05T00:38:49.915Z,27.73
2022-10-05T00:41:19.575Z,26.23
2022-10-05T00:44:11.387Z,27.08
2022-10-05T00:46:53.695Z,27.48
2022-10-05T00:49:53.318Z,26.42
2022-10-05T00:52:38.806Z,26.65
2022-10-05T00:55:24.143Z,26.65
2022-10-05T00:58:02.916Z,26.60
2022-10-05T01:00:33.197Z,27.08
2022-10-05T01:03:26.166Z,27.58
2022-10-05T01:06:22.670Z,27.15
2022-10-05T01:08:49.577Z,28.73
2022-10-05T01:11:46.961Z,28.02
2022-10-05T01:14:32.471Z,27.90
2022-10-05T01:17:13.712Z,28.98
2022-10-05T01:19:43.418Z,28.35
2022-10-05T01:22:16.120Z,27.90
2022-10-05T01:25:02.792Z,28.33
2022-10-05T01:27:38.627Z,27.88
2022-10-05T01:30:08.469Z,27.45
2022-10-05T01:32:44.579Z,26.75
2022-10-05T01:35:49.142Z,27.52
2022-10-05T01:41:12.228Z,26.77
2022-10-05T01:43:54.096Z,25.77
2022-10-05T01:46:38.982Z,26.17
2022-10-05T01:49:15.020Z,25.25
2022-10-05T01:51:47.739Z,25.55
2022-10-05T01:54:44.316Z,25.17
2022-10-05T01:57:32.921Z,26.20
2022-10-05T02:00:14.940Z,26.10
2022-10-05T02:03:03.091Z,24.35
2022-10-05T02:05:44.488Z,25.77
2022-10-05T02:08:22.568Z,25.92
2022-10-05T02:11:00.079Z,24.90
2022-10-05T02:13:35.729Z,23.88
2022-10-05T02:16:10.396Z,23.90
2022-10-05T02:18:44.137Z,24.65
